Time;durP1;ratioP1;P1;durP2;ratioP2;P2;SDS_P1;SDS_P2;PMS_P1;PMS_P2;Temp;Humidity;BMP_temperature;BMP_pressure;BME280_temperature;BME280_humidity;BME280_pressure;Samples;Min_cycle;Max_cycle;Signal;HPM_P1;HPM_P2
2023/08/17 00:00:18;;;;;;;4.97;1.93;;;20.30;99.90;;;;;;5057721;28;20433;-88
2023/08/17 00:03:04;;;;;;;4.37;2.03;;;20.30;99.90;;;;;;5052275;28;20447;-89
2023/08/17 00:05:49;;;;;;;5.80;1.63;;;20.20;99.90;;;;;;5050364;28;20437;-89
2023/08/17 00:08:35;;;;;;;7.23;2.60;;;20.20;99.90;;;;;;5051201;28;20592;-89
2023/08/17 00:11:22;;;;;;;4.17;1.73;;;20.10;99.90;;;;;;5055036;28;20424;-88
2023/08/17 00:14:07;;;;;;;9.90;2.60;;;20.10;99.90;;;;;;5057192;28;20445;-88
2023/08/17 00:16:53;;;;;;;11.07;2.63;;;20.00;99.90;;;;;;5046195;28;20459;-89
2023/08/17 00:19:39;;;;;;;3.10;1.40;;;20.00;99.90;;;;;;5046078;28;20437;-89
2023/08/17 00:22:24;;;;;;;5.30;2.30;;;20.00;99.90;;;;;;5059690;28;20447;-89
2023/08/17 00:25:10;;;;;;;5.60;1.93;;;20.00;99.90;;;;;;5046775;28;20991;-88
2023/08/17 00:27:57;;;;;;;5.17;1.80;;;20.00;99.90;;;;;;5068739;22;21728;-76
2023/08/17 00:30:42;;;;;;;6.40;2.30;;;20.00;99.90;;;;;;5080572;28;20474;-74
2023/08/17 00:33:28;;;;;;;6.77;2.03;;;20.00;99.90;;;;;;5080022;28;20494;-74
2023/08/17 00:36:13;;;;;;;3.67;1.47;;;20.00;99.90;;;;;;5081275;28;20439;-75
2023/08/17 00:38:59;;;;;;;4.50;1.80;;;19.90;99.90;;;;;;5081271;28;20620;-76
2023/08/17 00:41:45;;;;;;;3.90;1.93;;;19.80;99.90;;;;;;5077896;28;20587;-74
2023/08/17 00:44:32;;;;;;;5.53;1.50;;;19.80;99.90;;;;;;5073864;28;20527;-75
2023/08/17 00:47:17;;;;;;;7.07;1.47;;;19.70;99.90;;;;;;5076925;28;20866;-76
2023/08/17 00:50:03;;;;;;;5.73;1.97;;;19.50;99.90;;;;;;5074119;28;20437;-75
2023/08/17 00:52:49;;;;;;;2.97;1.80;;;19.50;99.90;;;;;;5079566;28;20436;-75
2023/08/17 00:55:35;;;;;;;5.17;2.00;;;19.60;99.90;;;;;;5078636;28;20812;-74
2023/08/17 00:58:23;;;;;;;3.67;2.30;;;19.50;99.90;;;;;;5075171;28;20411;-75
2023/08/17 01:01:10;;;;;;;4.53;1.90;;;19.60;99.90;;;;;;5075923;28;20465;-75
2023/08/17 01:03:55;;;;;;;5.43;1.70;;;19.60;99.90;;;;;;5073351;28;20407;-75
2023/08/17 01:06:41;;;;;;;9.03;1.97;;;19.50;99.90;;;;;;5072595;28;20444;-75
2023/08/17 01:09:27;;;;;;;8.73;1.90;;;19.30;99.90;;;;;;5077476;28;20440;-78
2023/08/17 01:12:24;;;;;;;11.87;1.83;;;19.30;99.90;;;;;;5076742;28;20442;-75
2023/08/17 01:15:15;;;;;;;6.80;2.07;;;19.30;99.90;;;;;;5072326;28;20433;-75
2023/08/17 01:18:09;;;;;;;3.43;2.03;;;19.20;99.90;;;;;;5074096;28;20480;-75
2023/08/17 01:20:56;;;;;;;12.13;2.30;;;19.20;99.90;;;;;;5077528;28;20487;-78
2023/08/17 01:23:45;;;;;;;3.97;2.53;;;19.30;99.90;;;;;;5077598;28;20435;-74
2023/08/17 01:26:30;;;;;;;4.43;2.50;;;19.20;99.90;;;;;;5076036;28;20444;-75
2023/08/17 01:29:16;;;;;;;7.10;2.27;;;19.30;99.90;;;;;;5073365;28;20573;-77
2023/08/17 01:32:08;;;;;;;6.43;2.00;;;19.40;99.90;;;;;;5077106;28;20480;-78
2023/08/17 01:34:58;;;;;;;7.90;2.10;;;19.40;99.90;;;;;;5078844;28;20416;-75
2023/08/17 01:37:44;;;;;;;8.00;2.00;;;19.30;99.90;;;;;;5077149;28;20588;-75
2023/08/17 01:40:33;;;;;;;8.97;1.90;;;19.10;99.90;;;;;;5073152;28;21127;-75
2023/08/17 01:43:19;;;;;;;3.00;1.90;;;19.10;99.90;;;;;;5077442;28;20966;-77
2023/08/17 01:46:05;;;;;;;7.50;2.80;;;19.00;99.90;;;;;;5074837;28;20441;-75
2023/08/17 01:48:50;;;;;;;3.90;2.07;;;19.10;99.90;;;;;;5073510;28;20586;-76
2023/08/17 01:51:35;;;;;;;6.10;2.07;;;19.10;99.90;;;;;;5078108;28;20460;-75
2023/08/17 01:54:21;;;;;;;3.40;2.23;;;19.10;99.90;;;;;;5073122;28;20511;-75
2023/08/17 01:57:08;;;;;;;4.33;1.93;;;19.10;99.90;;;;;;5076768;28;20472;-75
2023/08/17 01:59:53;;;;;;;9.33;2.00;;;19.20;99.90;;;;;;5081009;28;20855;-77
2023/08/17 02:02:39;;;;;;;7.83;1.90;;;19.20;99.90;;;;;;5076880;28;20478;-74
2023/08/17 02:05:25;;;;;;;5.17;1.60;;;19.10;99.90;;;;;;5076269;28;20414;-75
2023/08/17 02:08:10;;;;;;;6.30;1.90;;;19.00;99.90;;;;;;5078570;28;20427;-75
2023/08/17 02:10:56;;;;;;;9.90;2.40;;;18.90;99.90;;;;;;5075169;28;20511;-75
2023/08/17 02:13:43;;;;;;;6.73;2.93;;;18.90;99.90;;;;;;5075819;28;21057;-75
2023/08/17 02:16:28;;;;;;;4.33;2.03;;;18.90;99.90;;;;;;5079155;28;20423;-75
2023/08/17 02:19:14;;;;;;;6.40;2.50;;;19.00;99.90;;;;;;5078267;28;20491;-76
2023/08/17 02:22:00;;;;;;;4.10;1.90;;;19.00;99.90;;;;;;5078180;28;20439;-75
2023/08/17 02:24:46;;;;;;;13.13;2.40;;;19.00;99.90;;;;;;5076890;28;20478;-75
2023/08/17 02:27:31;;;;;;;6.00;2.53;;;19.00;99.90;;;;;;5075972;28;20460;-77
2023/08/17 02:30:18;;;;;;;3.90;2.40;;;18.90;99.90;;;;;;5078439;28;20447;-77
2023/08/17 02:33:05;;;;;;;5.53;1.90;;;18.80;99.90;;;;;;5076155;28;20449;-76
2023/08/17 02:35:50;;;;;;;3.57;2.30;;;18.80;99.90;;;;;;5073456;28;20790;-75
2023/08/17 02:38:36;;;;;;;5.77;2.40;;;18.80;99.90;;;;;;5076660;28;20474;-75
2023/08/17 02:41:21;;;;;;;8.23;2.70;;;18.90;99.90;;;;;;5074884;28;20475;-75
2023/08/17 02:44:07;;;;;;;5.50;1.90;;;18.90;99.90;;;;;;5080010;28;20418;-77
2023/08/17 02:46:54;;;;;;;8.07;2.20;;;18.80;99.90;;;;;;5078646;28;20564;-74
2023/08/17 02:49:39;;;;;;;7.93;2.30;;;18.90;99.90;;;;;;5073122;28;20427;-78
2023/08/17 02:52:25;;;;;;;5.13;1.70;;;18.90;99.90;;;;;;5081067;28;20794;-76
2023/08/17 02:55:10;;;;;;;6.93;2.77;;;18.90;99.90;;;;;;5075222;28;20460;-75
2023/08/17 02:57:56;;;;;;;3.90;2.13;;;18.80;99.90;;;;;;5080527;28;20475;-77
2023/08/17 03:00:41;;;;;;;5.60;2.33;;;18.70;99.90;;;;;;5081423;28;20967;-75
2023/08/17 03:03:28;;;;;;;2.60;2.07;;;18.70;99.90;;;;;;5085300;28;20452;-75
2023/08/17 03:06:14;;;;;;;3.90;2.00;;;18.80;99.90;;;;;;5081549;28;20439;-75
2023/08/17 03:08:59;;;;;;;7.33;2.13;;;18.80;99.90;;;;;;5077401;28;20426;-75
2023/08/17 03:11:45;;;;;;;7.27;2.83;;;18.80;99.90;;;;;;5083378;28;20434;-75
2023/08/17 03:14:30;;;;;;;4.53;1.97;;;18.80;99.90;;;;;;5085257;28;20449;-77
2023/08/17 03:17:16;;;;;;;10.83;2.60;;;18.80;99.90;;;;;;5081785;28;20516;-76
2023/08/17 03:20:06;;;;;;;6.90;2.10;;;18.90;99.90;;;;;;5082974;28;20559;-75
2023/08/17 03:22:51;;;;;;;8.90;1.80;;;19.00;99.90;;;;;;5079214;28;21358;-75
2023/08/17 03:25:37;;;;;;;5.60;2.00;;;18.90;99.90;;;;;;5074942;28;20415;-75
2023/08/17 03:28:22;;;;;;;7.93;2.43;;;18.90;99.90;;;;;;5080279;28;20464;-76
2023/08/17 03:31:09;;;;;;;8.77;2.00;;;18.90;99.90;;;;;;5082256;28;20469;-75
2023/08/17 03:33:55;;;;;;;4.40;2.03;;;18.90;99.90;;;;;;5080057;28;20435;-75
2023/08/17 03:36:42;;;;;;;7.53;2.20;;;19.00;99.90;;;;;;5083654;28;20434;-75
2023/08/17 03:39:27;;;;;;;4.80;2.00;;;19.00;99.90;;;;;;5081580;28;20533;-78
2023/08/17 03:42:12;;;;;;;9.00;2.23;;;19.00;99.90;;;;;;5080177;28;20880;-77
2023/08/17 03:44:58;;;;;;;4.87;1.80;;;18.90;99.90;;;;;;5082426;28;20827;-75
2023/08/17 03:47:44;;;;;;;5.00;1.90;;;18.80;99.90;;;;;;5081144;28;20783;-75
2023/08/17 03:50:30;;;;;;;6.30;2.43;;;18.70;99.90;;;;;;5081234;28;20469;-75
2023/08/17 03:53:17;;;;;;;6.23;1.77;;;18.60;99.90;;;;;;5077216;28;20484;-77
2023/08/17 03:56:02;;;;;;;3.60;2.57;;;18.60;99.90;;;;;;5079904;28;20443;-75
2023/08/17 03:58:48;;;;;;;10.80;2.40;;;18.70;99.90;;;;;;5075323;28;20436;-75
2023/08/17 04:01:33;;;;;;;7.57;1.90;;;18.80;99.90;;;;;;5078912;28;20591;-77
2023/08/17 04:04:19;;;;;;;7.83;2.10;;;18.80;99.90;;;;;;5080452;28;20427;-75
2023/08/17 04:07:06;;;;;;;11.73;3.30;;;18.80;99.90;;;;;;5075543;28;20456;-76
2023/08/17 04:09:53;;;;;;;4.83;1.97;;;18.80;99.90;;;;;;5076018;28;20820;-75
2023/08/17 04:12:38;;;;;;;15.60;2.57;;;18.80;99.90;;;;;;5075961;28;20481;-74
2023/08/17 04:15:24;;;;;;;9.00;2.50;;;18.70;99.90;;;;;;5076046;28;20426;-75
2023/08/17 04:18:10;;;;;;;5.97;2.60;;;18.70;99.90;;;;;;5079004;28;20462;-74
2023/08/17 04:20:55;;;;;;;7.40;2.83;;;18.70;99.90;;;;;;5080116;28;20455;-75
2023/08/17 04:23:41;;;;;;;5.60;1.90;;;18.70;99.90;;;;;;5076035;28;21060;-75
2023/08/17 04:26:28;;;;;;;2.60;1.83;;;18.70;99.90;;;;;;5081380;28;20439;-75
2023/08/17 04:29:14;;;;;;;13.10;2.40;;;18.70;99.90;;;;;;5076273;28;21096;-76
2023/08/17 04:31:59;;;;;;;5.03;1.80;;;18.70;99.90;;;;;;5079073;28;20456;-76
2023/08/17 04:34:46;;;;;;;3.83;2.20;;;18.70;99.90;;;;;;5074553;28;20453;-75
2023/08/17 04:37:31;;;;;;;5.00;2.73;;;18.70;99.90;;;;;;5076571;28;20480;-77
2023/08/17 04:40:17;;;;;;;8.30;2.63;;;18.70;99.90;;;;;;5077715;28;20464;-76
2023/08/17 04:43:04;;;;;;;6.23;2.47;;;18.60;99.90;;;;;;5074458;28;20471;-76
2023/08/17 04:45:49;;;;;;;2.93;2.33;;;18.60;99.90;;;;;;5081965;28;20571;-74
2023/08/17 04:48:35;;;;;;;4.47;2.43;;;18.50;99.90;;;;;;5076811;28;20558;-75
2023/08/17 04:51:21;;;;;;;4.60;2.27;;;18.40;99.90;;;;;;5076919;28;20551;-75
2023/08/17 04:54:06;;;;;;;7.03;2.70;;;18.40;99.90;;;;;;5078152;28;20627;-75
2023/08/17 04:56:52;;;;;;;5.40;1.90;;;18.40;99.90;;;;;;5080822;28;20446;-75
2023/08/17 04:59:39;;;;;;;9.40;2.20;;;18.40;99.90;;;;;;5075002;28;20960;-77
2023/08/17 05:02:24;;;;;;;5.93;2.20;;;18.40;99.90;;;;;;5083351;28;21026;-75
2023/08/17 05:05:11;;;;;;;12.63;2.70;;;18.40;99.90;;;;;;5080884;28;20478;-75
2023/08/17 05:07:56;;;;;;;7.90;2.60;;;18.20;99.90;;;;;;5081587;28;20416;-75
2023/08/17 05:10:42;;;;;;;3.30;2.47;;;18.30;99.90;;;;;;5076218;28;20442;-75
2023/08/17 05:13:28;;;;;;;9.10;2.33;;;18.40;99.90;;;;;;5077683;28;20415;-76
2023/08/17 05:16:15;;;;;;;3.40;1.77;;;18.60;99.90;;;;;;5078739;28;20527;-74
2023/08/17 05:19:00;;;;;;;5.20;2.53;;;18.70;99.90;;;;;;5081350;28;20519;-75
2023/08/17 05:21:46;;;;;;;16.20;2.60;;;18.80;99.90;;;;;;5072148;28;20489;-77
2023/08/17 05:24:31;;;;;;;6.30;2.00;;;18.90;99.90;;;;;;5079721;28;20444;-74
2023/08/17 05:27:17;;;;;;;6.93;2.37;;;19.00;99.90;;;;;;5081331;28;20451;-77
2023/08/17 05:30:02;;;;;;;12.53;2.50;;;19.00;99.90;;;;;;5078320;28;20515;-76
2023/08/17 05:32:49;;;;;;;4.87;1.83;;;19.00;99.90;;;;;;5076129;28;20425;-75
2023/08/17 05:35:35;;;;;;;6.70;2.50;;;19.10;99.90;;;;;;5077058;28;20422;-75
2023/08/17 05:38:21;;;;;;;8.40;2.60;;;19.20;99.90;;;;;;5073875;28;20805;-75
2023/08/17 05:41:06;;;;;;;4.03;2.30;;;19.20;99.90;;;;;;5075478;28;20461;-75
2023/08/17 05:43:52;;;;;;;4.73;2.50;;;19.20;99.90;;;;;;5081970;28;20972;-75
2023/08/17 05:46:37;;;;;;;6.80;2.47;;;19.30;99.90;;;;;;5078251;28;21147;-75
2023/08/17 05:49:24;;;;;;;3.70;2.37;;;19.30;99.90;;;;;;5078497;28;20417;-75
2023/08/17 05:52:09;;;;;;;4.40;2.70;;;19.40;99.90;;;;;;5079298;28;20539;-75
2023/08/17 05:54:55;;;;;;;4.87;2.00;;;19.40;99.90;;;;;;5077708;28;20464;-75
2023/08/17 05:57:40;;;;;;;5.17;2.77;;;19.40;99.90;;;;;;5076251;28;21066;-75
2023/08/17 06:00:26;;;;;;;3.40;2.20;;;19.40;99.90;;;;;;5080742;28;21031;-75
2023/08/17 06:03:12;;;;;;;5.23;2.43;;;19.50;99.90;;;;;;5075280;28;20789;-75
2023/08/17 06:05:58;;;;;;;3.77;2.60;;;19.50;99.90;;;;;;5076976;28;20495;-74
2023/08/17 06:08:44;;;;;;;10.10;2.73;;;19.60;99.90;;;;;;5075140;28;20444;-75
2023/08/17 06:11:29;;;;;;;12.83;3.53;;;19.70;99.90;;;;;;5074499;28;20472;-75
2023/08/17 06:14:15;;;;;;;5.40;3.10;;;19.70;99.90;;;;;;5072557;28;20445;-75
2023/08/17 06:17:01;;;;;;;9.47;4.07;;;19.80;99.90;;;;;;5076548;28;20412;-75
2023/08/17 06:19:46;;;;;;;6.60;3.10;;;19.90;99.90;;;;;;5075466;28;20477;-75
2023/08/17 06:22:33;;;;;;;6.40;2.93;;;20.00;99.90;;;;;;5075154;28;20436;-75
2023/08/17 06:25:19;;;;;;;7.13;2.83;;;20.00;99.90;;;;;;5077538;28;20441;-75
2023/08/17 06:28:06;;;;;;;4.70;2.50;;;20.10;99.90;;;;;;5070514;28;20548;-75
2023/08/17 06:30:53;;;;;;;4.83;2.90;;;20.20;99.90;;;;;;5077439;28;20554;-75
2023/08/17 06:33:38;;;;;;;5.27;2.90;;;20.20;99.90;;;;;;5080517;28;21239;-75
2023/08/17 06:36:23;;;;;;;3.50;2.40;;;20.20;99.90;;;;;;5081145;28;20449;-75
2023/08/17 06:39:10;;;;;;;4.23;2.33;;;20.30;99.90;;;;;;5079606;28;20947;-75
2023/08/17 06:41:56;;;;;;;4.23;2.00;;;20.30;99.90;;;;;;5086287;28;20473;-75
2023/08/17 06:44:42;;;;;;;3.20;2.70;;;20.40;99.90;;;;;;5078105;28;20409;-75
2023/08/17 06:47:27;;;;;;;5.50;2.83;;;20.60;99.90;;;;;;5081720;28;20432;-75
2023/08/17 06:50:13;;;;;;;4.23;2.87;;;20.60;99.90;;;;;;5076798;28;20490;-75
2023/08/17 06:52:58;;;;;;;5.47;2.90;;;20.80;99.90;;;;;;5078711;28;20424;-75
2023/08/17 06:55:45;;;;;;;5.77;2.80;;;20.80;99.90;;;;;;5077097;28;20500;-75
2023/08/17 06:58:30;;;;;;;4.17;2.33;;;20.90;99.90;;;;;;5082825;28;20593;-75
2023/08/17 07:01:16;;;;;;;3.30;2.17;;;21.00;99.90;;;;;;5079295;28;20464;-75
2023/08/17 07:04:01;;;;;;;3.70;2.00;;;21.10;99.90;;;;;;5077304;28;20803;-75
2023/08/17 07:06:47;;;;;;;5.23;2.43;;;21.10;99.90;;;;;;5081975;28;20453;-75
2023/08/17 07:09:34;;;;;;;5.87;2.70;;;21.10;99.90;;;;;;5084238;28;20449;-75
2023/08/17 07:12:21;;;;;;;15.77;2.53;;;21.10;99.90;;;;;;5077376;28;20441;-75
2023/08/17 07:15:08;;;;;;;5.73;2.77;;;21.20;99.90;;;;;;5081653;28;20465;-75
2023/08/17 07:17:53;;;;;;;5.60;2.23;;;21.30;99.90;;;;;;5076889;28;20449;-75
2023/08/17 07:20:39;;;;;;;3.63;2.00;;;21.40;99.90;;;;;;5074429;28;20433;-75
2023/08/17 07:23:25;;;;;;;3.83;2.60;;;21.50;99.90;;;;;;5079929;28;20453;-75
2023/08/17 07:26:10;;;;;;;4.30;2.53;;;21.60;99.90;;;;;;5080033;28;20458;-75
2023/08/17 07:28:57;;;;;;;3.07;2.20;;;21.70;99.90;;;;;;5077344;28;20455;-75
2023/08/17 07:31:42;;;;;;;4.27;2.27;;;21.70;99.90;;;;;;5078894;28;20461;-75
2023/08/17 07:34:28;;;;;;;8.20;2.93;;;21.80;99.90;;;;;;5077980;28;20535;-75
2023/08/17 07:37:14;;;;;;;3.00;2.10;;;21.80;99.90;;;;;;5075367;28;20431;-75
2023/08/17 07:39:59;;;;;;;5.30;2.90;;;21.80;99.90;;;;;;5081875;28;20463;-75
2023/08/17 07:42:46;;;;;;;4.67;3.30;;;21.90;99.90;;;;;;5083403;28;20441;-75
2023/08/17 07:45:33;;;;;;;5.33;2.90;;;22.00;99.90;;;;;;5080091;28;20477;-75
2023/08/17 07:48:18;;;;;;;5.73;2.17;;;22.10;99.90;;;;;;5080281;28;20480;-75
2023/08/17 07:51:04;;;;;;;4.50;3.03;;;22.20;99.90;;;;;;5083678;28;20503;-75
2023/08/17 07:53:50;;;;;;;4.00;2.70;;;22.20;99.90;;;;;;5082382;28;20779;-75
2023/08/17 07:56:35;;;;;;;4.50;2.50;;;22.40;99.90;;;;;;5079919;28;20595;-75
2023/08/17 07:59:21;;;;;;;4.20;2.57;;;22.50;99.90;;;;;;5079995;28;20461;-75
2023/08/17 08:02:07;;;;;;;3.70;2.63;;;22.60;99.90;;;;;;5079005;28;20532;-75
2023/08/17 08:04:53;;;;;;;3.93;2.80;;;22.60;99.90;;;;;;5082637;28;23471;-75
2023/08/17 08:07:39;;;;;;;4.10;2.27;;;22.70;99.90;;;;;;5077521;28;20516;-75
2023/08/17 08:10:24;;;;;;;3.27;2.33;;;22.80;99.90;;;;;;5076775;28;20920;-75
2023/08/17 08:13:10;;;;;;;3.50;2.80;;;22.80;99.90;;;;;;5077451;28;20550;-75
2023/08/17 08:15:55;;;;;;;4.33;2.40;;;22.90;99.90;;;;;;5075747;28;20661;-75
2023/08/17 08:18:42;;;;;;;5.30;2.20;;;22.90;99.90;;;;;;5077760;28;20474;-75
2023/08/17 08:21:28;;;;;;;3.63;2.37;;;23.00;99.90;;;;;;5077217;28;20462;-75
2023/08/17 08:24:13;;;;;;;4.37;2.50;;;23.10;99.90;;;;;;5074772;28;20477;-75
2023/08/17 08:26:59;;;;;;;5.30;2.43;;;23.10;99.90;;;;;;5079352;28;20420;-75
2023/08/17 08:29:44;;;;;;;4.67;2.57;;;23.20;99.90;;;;;;5077240;28;20544;-75
2023/08/17 08:32:30;;;;;;;5.23;2.67;;;23.20;99.90;;;;;;5080635;28;20438;-75
2023/08/17 08:35:17;;;;;;;4.30;2.40;;;23.20;99.90;;;;;;5077820;28;20497;-75
2023/08/17 08:38:03;;;;;;;7.27;2.63;;;23.20;99.90;;;;;;5075368;28;20437;-75
2023/08/17 08:40:49;;;;;;;4.17;2.90;;;23.30;99.90;;;;;;5083675;28;20474;-75
2023/08/17 08:43:34;;;;;;;4.43;2.87;;;23.30;99.90;;;;;;5082687;28;20539;-75
2023/08/17 08:46:23;;;;;;;7.87;3.87;;;23.00;99.90;;;;;;5079636;28;20442;-75
2023/08/17 08:49:12;;;;;;;7.93;3.27;;;22.80;99.90;;;;;;5076663;28;20443;-75
2023/08/17 08:52:00;;;;;;;5.03;3.20;;;22.70;99.90;;;;;;5081368;28;20507;-75
2023/08/17 08:54:50;;;;;;;6.40;3.07;;;22.70;99.90;;;;;;5073506;28;20412;-75
2023/08/17 08:57:36;;;;;;;6.40;3.50;;;22.60;99.90;;;;;;5080183;28;20438;-75
2023/08/17 09:00:21;;;;;;;6.50;2.50;;;22.70;99.90;;;;;;5078556;28;20477;-75
2023/08/17 09:03:07;;;;;;;6.53;3.10;;;22.80;99.90;;;;;;5079212;28;20492;-75
2023/08/17 09:05:53;;;;;;;5.93;3.33;;;23.00;99.90;;;;;;5078882;28;20441;-75
2023/08/17 09:08:41;;;;;;;5.77;3.50;;;23.00;99.90;;;;;;5078404;28;20450;-75
2023/08/17 09:11:26;;;;;;;6.57;3.33;;;23.20;99.90;;;;;;5078212;28;20572;-75
2023/08/17 09:14:12;;;;;;;10.00;3.23;;;23.30;99.90;;;;;;5080952;28;20794;-75
2023/08/17 09:16:58;;;;;;;3.70;2.87;;;23.50;99.90;;;;;;5076176;28;20440;-75
2023/08/17 09:19:49;;;;;;;4.47;2.87;;;23.70;99.90;;;;;;5076881;28;20481;-75
2023/08/17 09:22:39;;;;;;;5.90;3.30;;;23.90;99.90;;;;;;5076638;28;21030;-75
2023/08/17 09:25:25;;;;;;;4.57;2.90;;;24.00;99.90;;;;;;5074620;28;20521;-75
2023/08/17 09:28:14;;;;;;;10.37;3.60;;;24.10;99.90;;;;;;5080143;28;20454;-75
2023/08/17 09:31:02;;;;;;;8.43;4.20;;;24.20;99.90;;;;;;5079257;28;20459;-75
2023/08/17 09:33:50;;;;;;;5.40;3.60;;;24.10;99.90;;;;;;5075996;28;20964;-75
2023/08/17 09:36:36;;;;;;;6.03;4.13;;;24.10;99.90;;;;;;5077101;28;20800;-75
2023/08/17 09:39:22;;;;;;;6.70;3.73;;;24.20;99.90;;;;;;5073090;28;21028;-75
2023/08/17 09:42:10;;;;;;;10.13;4.40;;;24.20;99.90;;;;;;5083828;28;20832;-75
2023/08/17 09:44:56;;;;;;;5.90;4.77;;;24.20;99.90;;;;;;5080003;28;20580;-75
2023/08/17 09:47:43;;;;;;;5.30;4.33;;;24.20;99.90;;;;;;5080514;28;20448;-75
2023/08/17 09:50:29;;;;;;;4.60;3.33;;;24.00;99.90;;;;;;5080988;28;20446;-75
2023/08/17 09:53:15;;;;;;;7.67;4.00;;;23.90;99.90;;;;;;5072000;28;20443;-75
2023/08/17 09:56:02;;;;;;;6.80;3.60;;;23.80;99.90;;;;;;5077838;28;20505;-75
2023/08/17 09:58:48;;;;;;;5.33;3.47;;;23.80;99.90;;;;;;5079479;28;20581;-75
2023/08/17 10:01:34;;;;;;;6.47;3.67;;;23.70;99.90;;;;;;5077744;28;21098;-75
2023/08/17 10:04:23;;;;;;;6.23;3.00;;;23.80;99.90;;;;;;5076999;28;20524;-75
2023/08/17 10:07:10;;;;;;;5.37;3.20;;;23.90;99.90;;;;;;5075999;28;20443;-75
2023/08/17 10:10:03;;;;;;;6.20;3.37;;;24.00;99.90;;;;;;5075142;28;20576;-76
2023/08/17 10:13:00;;;;;;;4.20;3.30;;;24.30;99.90;;;;;;5079377;28;20491;-75
2023/08/17 10:16:02;;;;;;;4.73;3.60;;;24.40;99.90;;;;;;5073780;28;20442;-75
2023/08/17 10:18:54;;;;;;;5.67;3.50;;;24.50;99.90;;;;;;5074477;28;20449;-75
2023/08/17 10:21:47;;;;;;;7.00;3.60;;;24.50;99.90;;;;;;5070649;28;20471;-75
2023/08/17 10:24:36;;;;;;;5.50;4.03;;;24.40;99.90;;;;;;5076803;28;20444;-75
2023/08/17 10:27:21;;;;;;;5.80;4.20;;;24.40;99.90;;;;;;5072441;28;20439;-75
2023/08/17 10:30:09;;;;;;;7.33;3.87;;;24.40;99.90;;;;;;5074838;28;20528;-75
2023/08/17 10:32:56;;;;;;;5.63;4.00;;;24.40;99.90;;;;;;5078159;28;20515;-75
2023/08/17 10:35:42;;;;;;;7.20;4.53;;;24.30;99.90;;;;;;5073813;28;20504;-75
2023/08/17 10:38:27;;;;;;;6.97;4.90;;;24.30;99.90;;;;;;5078589;28;21092;-75
2023/08/17 10:41:14;;;;;;;7.67;4.50;;;24.30;99.90;;;;;;5074927;28;20480;-75
2023/08/17 10:44:00;;;;;;;6.30;4.13;;;24.30;99.90;;;;;;5076676;28;20521;-75
2023/08/17 10:46:46;;;;;;;6.70;4.33;;;24.40;99.90;;;;;;5079241;28;20579;-75
2023/08/17 10:49:33;;;;;;;6.10;4.10;;;24.50;99.90;;;;;;5077339;28;20448;-75
2023/08/17 10:52:27;;;;;;;5.70;4.50;;;24.50;99.90;;;;;;5082762;28;20460;-75
2023/08/17 10:55:13;;;;;;;6.20;4.10;;;24.70;99.90;;;;;;5083608;28;20591;-75
2023/08/17 10:57:58;;;;;;;5.80;4.10;;;24.90;99.90;;;;;;5078715;28;20459;-75
2023/08/17 11:00:44;;;;;;;7.63;4.50;;;25.00;99.90;;;;;;5079595;28;20470;-75
2023/08/17 11:03:30;;;;;;;4.93;4.20;;;25.00;99.90;;;;;;5075798;28;20469;-75
2023/08/17 11:06:18;;;;;;;7.97;5.10;;;25.00;99.90;;;;;;5079401;28;20540;-75
2023/08/17 11:09:07;;;;;;;8.07;4.53;;;25.10;99.90;;;;;;5079461;28;20494;-75
2023/08/17 11:11:54;;;;;;;10.33;5.20;;;25.20;99.90;;;;;;5076236;28;20468;-75
2023/08/17 11:14:39;;;;;;;5.77;4.80;;;25.40;99.90;;;;;;5077003;28;20442;-75
2023/08/17 11:17:25;;;;;;;6.27;4.80;;;25.60;99.90;;;;;;5081812;28;20445;-75
2023/08/17 11:20:11;;;;;;;8.27;4.80;;;25.70;99.90;;;;;;5074389;28;20479;-75
2023/08/17 11:22:58;;;;;;;6.93;5.30;;;25.70;99.90;;;;;;5079760;28;20524;-75
2023/08/17 11:25:44;;;;;;;7.10;5.40;;;25.70;99.90;;;;;;5076168;28;20434;-75
2023/08/17 11:28:33;;;;;;;7.70;6.20;;;25.70;99.90;;;;;;5075853;28;20475;-76
2023/08/17 11:31:18;;;;;;;6.57;5.70;;;25.50;99.90;;;;;;5072357;28;20939;-75
2023/08/17 11:34:04;;;;;;;6.30;5.23;;;25.40;99.90;;;;;;5074946;28;20456;-75
2023/08/17 11:36:50;;;;;;;6.60;5.60;;;25.60;99.90;;;;;;5094920;22;20491;-73
2023/08/17 11:39:36;;;;;;;6.67;5.27;;;25.80;99.90;;;;;;5083318;28;21040;-73
2023/08/17 11:42:23;;;;;;;9.30;5.57;;;25.90;99.90;;;;;;5086428;28;20549;-74
2023/08/17 11:45:10;;;;;;;6.73;5.97;;;26.10;99.90;;;;;;5082092;28;20970;-73
2023/08/17 11:47:55;;;;;;;6.50;4.83;;;26.10;99.90;;;;;;5064635;28;20840;-73
2023/08/17 11:50:41;;;;;;;5.90;5.30;;;26.40;99.90;;;;;;5059250;28;20526;-73
2023/08/17 11:53:34;;;;;;;6.50;4.67;;;26.60;99.90;;;;;;5062288;28;20496;-73
2023/08/17 11:56:20;;;;;;;5.77;5.27;;;26.60;99.90;;;;;;5058685;28;21815;-73
2023/08/17 11:59:11;;;;;;;6.40;5.70;;;26.30;99.90;;;;;;5064945;28;20498;-73
2023/08/17 12:01:56;;;;;;;6.53;5.67;;;26.30;99.90;;;;;;5063455;28;20439;-73
2023/08/17 12:04:41;;;;;;;5.80;5.30;;;26.30;99.90;;;;;;5064770;28;20450;-73
2023/08/17 12:07:27;;;;;;;7.40;5.10;;;26.40;99.90;;;;;;5061515;28;20468;-74
2023/08/17 12:10:12;;;;;;;7.60;5.30;;;26.40;99.90;;;;;;5064668;28;21015;-73
2023/08/17 12:13:00;;;;;;;5.83;5.33;;;26.20;99.90;;;;;;5066436;28;20518;-74
2023/08/17 12:15:45;;;;;;;6.43;5.30;;;26.20;99.90;;;;;;5063715;28;20451;-73
2023/08/17 12:18:34;;;;;;;6.10;5.50;;;26.20;99.90;;;;;;5065945;28;20441;-73
2023/08/17 12:21:20;;;;;;;7.40;5.97;;;26.20;99.90;;;;;;5064550;28;20485;-73
2023/08/17 12:24:07;;;;;;;6.77;5.67;;;26.30;99.90;;;;;;5062740;28;20441;-73
2023/08/17 12:26:52;;;;;;;9.43;6.27;;;26.40;99.90;;;;;;5059890;28;20465;-73
2023/08/17 12:29:49;;;;;;;7.30;6.57;;;26.30;99.90;;;;;;5060057;28;20444;-74
2023/08/17 12:32:34;;;;;;;6.70;5.63;;;26.20;99.90;;;;;;5059512;28;20447;-74
2023/08/17 12:35:21;;;;;;;8.43;6.77;;;26.00;99.90;;;;;;5062193;28;20550;-73
2023/08/17 12:38:06;;;;;;;7.57;6.90;;;25.70;99.90;;;;;;5058894;28;20484;-73
2023/08/17 12:40:52;;;;;;;8.53;6.80;;;25.50;99.90;;;;;;5058333;28;20501;-73
2023/08/17 12:43:38;;;;;;;7.33;6.17;;;25.30;99.90;;;;;;5060865;28;20447;-73
2023/08/17 12:46:25;;;;;;;8.23;6.50;;;25.20;99.90;;;;;;5061700;28;20478;-73
2023/08/17 12:49:10;;;;;;;8.53;7.47;;;25.00;99.90;;;;;;5060353;28;20441;-73
2023/08/17 12:51:56;;;;;;;7.80;7.00;;;25.10;99.90;;;;;;5063282;28;20443;-73
2023/08/17 12:54:41;;;;;;;6.50;5.63;;;25.10;99.90;;;;;;5060232;28;20506;-73
2023/08/17 12:57:27;;;;;;;8.63;6.43;;;25.00;99.90;;;;;;5063199;28;20475;-74
2023/08/17 13:00:13;;;;;;;12.20;5.70;;;25.00;99.90;;;;;;5066218;28;20844;-73
2023/08/17 13:03:00;;;;;;;6.50;5.63;;;25.00;99.90;;;;;;5064722;28;20459;-73
2023/08/17 13:05:46;;;;;;;6.27;5.50;;;25.10;99.90;;;;;;5060685;28;20895;-73
2023/08/17 13:08:31;;;;;;;8.93;6.10;;;25.20;99.90;;;;;;5062601;28;20461;-73
2023/08/17 13:11:17;;;;;;;7.23;5.10;;;25.30;99.90;;;;;;5060704;28;21043;-74
2023/08/17 13:14:02;;;;;;;5.67;5.00;;;25.30;99.90;;;;;;5063773;28;20414;-74
2023/08/17 13:16:48;;;;;;;5.73;4.50;;;25.40;99.90;;;;;;5062354;28;20459;-74
2023/08/17 13:19:34;;;;;;;6.60;4.60;;;25.40;99.90;;;;;;5061802;28;20984;-74
2023/08/17 13:22:20;;;;;;;9.83;4.87;;;25.40;99.90;;;;;;5064893;28;20442;-73
2023/08/17 13:25:06;;;;;;;6.67;4.93;;;25.50;99.90;;;;;;5059823;28;20421;-74
2023/08/17 13:27:52;;;;;;;8.73;4.70;;;25.70;99.90;;;;;;5057761;28;20468;-73
2023/08/17 13:30:39;;;;;;;7.63;4.80;;;26.10;99.90;;;;;;5059984;28;20434;-74
2023/08/17 13:33:24;;;;;;;5.90;4.90;;;26.40;99.90;;;;;;5057529;28;20496;-74
2023/08/17 13:36:11;;;;;;;7.23;4.93;;;26.60;99.90;;;;;;5059323;28;20491;-73
2023/08/17 13:38:57;;;;;;;6.03;5.30;;;26.60;99.90;;;;;;5057260;28;20636;-73
2023/08/17 13:41:43;;;;;;;6.30;5.03;;;26.60;99.90;;;;;;5063384;28;20628;-74
2023/08/17 13:44:28;;;;;;;7.90;5.37;;;26.60;99.90;;;;;;5058838;28;20599;-75
2023/08/17 13:47:14;;;;;;;10.23;5.60;;;26.50;99.90;;;;;;5065286;28;20609;-74
2023/08/17 13:49:59;;;;;;;7.13;5.43;;;26.30;99.90;;;;;;5060826;28;20473;-73
2023/08/17 13:52:47;;;;;;;6.87;5.10;;;26.30;99.90;;;;;;5061074;28;20440;-74
2023/08/17 13:55:32;;;;;;;6.27;5.67;;;26.30;99.90;;;;;;5063563;28;20477;-74
2023/08/17 13:58:18;;;;;;;11.30;5.60;;;26.20;99.90;;;;;;5062710;28;21586;-74
2023/08/17 14:01:03;;;;;;;6.10;5.40;;;26.10;99.90;;;;;;5062220;28;20483;-74
2023/08/17 14:03:49;;;;;;;8.17;5.50;;;26.20;99.90;;;;;;5064256;28;20477;-74
2023/08/17 14:06:34;;;;;;;8.43;6.10;;;26.10;99.90;;;;;;5061448;28;20597;-74
2023/08/17 14:09:21;;;;;;;7.67;6.03;;;26.10;99.90;;;;;;5062564;28;20495;-74
2023/08/17 14:12:07;;;;;;;6.57;5.97;;;26.10;99.90;;;;;;5066534;28;20596;-74
2023/08/17 14:14:52;;;;;;;9.93;5.73;;;26.30;99.90;;;;;;5064005;28;21199;-74
2023/08/17 14:17:38;;;;;;;7.57;6.40;;;26.30;99.90;;;;;;5062033;28;20467;-74
2023/08/17 14:20:23;;;;;;;8.00;5.37;;;26.30;99.90;;;;;;5060166;28;20470;-74
2023/08/17 14:23:09;;;;;;;6.60;6.00;;;26.30;99.90;;;;;;5061071;28;20445;-74